Observation data for Seminole on 03/05/2021      Previous  Date  Next       Current Mesonet Observations  Soil Data  Daily Summary Page  Observations in Plain Language
KSM1 050600Z 30006KT 08/M07 A3001 RMK A01 T00811065  RH  035%=      5-min Rain = 0
KSM1 050605Z 30006KT 08/M06 A3001 RMK A01 T00801063  RH  036%=      5-min Rain = 0
KSM1 050610Z 30007KT 08/M06 A3001 RMK A01 T00811060  RH  036%=      5-min Rain = 0
KSM1 050615Z 29007KT 09/M06 A3001 RMK A01 T00851057  RH  036%=      5-min Rain = 0
KSM1 050620Z 29007KT 09/M06 A3001 RMK A01 T00871056  RH  036%=      5-min Rain = 0
KSM1 050625Z 29008KT 09/M05 A3001 RMK A01 T00911053  RH  036%=      5-min Rain = 0
KSM1 050630Z 29009KT 10/M05 A3001 RMK A01 T00971050  RH  035%=      5-min Rain = 0
KSM1 050635Z 28007KT 09/M05 A3001 RMK A01 T00941052  RH  035%=      5-min Rain = 0
KSM1 050640Z 28008KT 09/M05 A3001 RMK A01 T00891053  RH  036%=      5-min Rain = 0
KSM1 050645Z 28008KT 09/M05 A3001 RMK A01 T00891052  RH  037%=      5-min Rain = 0
KSM1 050650Z 28009KT 09/M05 A3001 RMK A01 T00921051  RH  036%=      5-min Rain = 0
KSM1 050655Z 28009KT 09/M05 A3001 RMK A01 T00901052  RH  036%=      5-min Rain = 0
KSM1 050700Z 28008KT 09/M05 A3001 RMK A01 T00891052  RH  037%=      5-min Rain = 0
KSM1 050705Z 28008KT 09/M05 A3001 RMK A01 T00881051  RH  037%=      5-min Rain = 0
KSM1 050710Z 28009KT 09/M05 A3001 RMK A01 T00901050  RH  037%=      5-min Rain = 0
KSM1 050715Z 29010G15KT 10/M05 A3001 RMK A01 T00951048  RH  036%=      5-min Rain = 0
KSM1 050720Z 28009G15KT 10/M05 A3001 RMK A01 T00981048  RH  036%=      5-min Rain = 0
KSM1 050725Z 28010KT 10/M05 A3002 RMK A01 T00991047  RH  036%=      5-min Rain = 0
KSM1 050730Z 28009G14KT 10/M05 A3002 RMK A01 T00971047  RH  036%=      5-min Rain = 0
KSM1 050735Z 27009KT 09/M05 A3002 RMK A01 T00941048  RH  037%=      5-min Rain = 0
KSM1 050740Z 27009KT 09/M05 A3002 RMK A01 T00881050  RH  038%=      5-min Rain = 0
KSM1 050745Z 27009KT 08/M05 A3002 RMK A01 T00841049  RH  039%=      5-min Rain = 0
KSM1 050750Z 27009KT 08/M05 A3002 RMK A01 T00811048  RH  040%=      5-min Rain = 0
KSM1 050755Z 27009KT 08/M05 A3002 RMK A01 T00791048  RH  040%=      5-min Rain = 0
KSM1 050800Z 29011G17KT 08/M05 A3002 RMK A01 T00811046  RH  040%=      5-min Rain = 0
KSM1 050805Z 29011G16KT 09/M05 A3002 RMK A01 T00871046  RH  039%=      5-min Rain = 0
KSM1 050810Z 29010G16KT 09/M05 A3002 RMK A01 T00861045  RH  039%=      5-min Rain = 0
KSM1 050815Z 27008KT 08/M05 A3003 RMK A01 T00831047  RH  040%=      5-min Rain = 0
KSM1 050820Z 28007KT 08/M05 A3002 RMK A01 T00791047  RH  041%=      5-min Rain = 0
KSM1 050825Z 29009G14KT 08/M05 A3003 RMK A01 T00821045  RH  040%=      5-min Rain = 0
KSM1 050830Z 29012KT 09/M05 A3003 RMK A01 T00901046  RH  038%=      5-min Rain = 0
KSM1 050835Z 29012G17KT 09/M05 A3003 RMK A01 T00911047  RH  038%=      5-min Rain = 0
KSM1 050840Z 29011KT 09/M05 A3003 RMK A01 T00901047  RH  038%=      5-min Rain = 0
KSM1 050845Z 29011G16KT 09/M05 A3003 RMK A01 T00891046  RH  038%=      5-min Rain = 0
KSM1 050850Z 28011G17KT 09/M05 A3003 RMK A01 T00881046  RH  039%=      5-min Rain = 0
KSM1 050855Z 29013G20KT 09/M05 A3003 RMK A01 T00891047  RH  038%=      5-min Rain = 0
KSM1 050900Z 28012G19KT 09/M05 A3003 RMK A01 T00901046  RH  038%=      5-min Rain = 0
KSM1 050905Z 28011KT 09/M05 A3003 RMK A01 T00871046  RH  039%=      5-min Rain = 0
KSM1 050910Z 29013KT 09/M05 A3003 RMK A01 T00881046  RH  039%=      5-min Rain = 0
KSM1 050915Z 29012G19KT 09/M05 A3003 RMK A01 T00901046  RH  038%=      5-min Rain = 0
KSM1 050920Z 29013KT 09/M05 A3003 RMK A01 T00901047  RH  038%=      5-min Rain = 0
KSM1 050925Z 29012G17KT 09/M05 A3003 RMK A01 T00911048  RH  037%=      5-min Rain = 0
KSM1 050930Z 30011G16KT 09/M05 A3003 RMK A01 T00901048  RH  038%=      5-min Rain = 0
KSM1 050935Z 30014KT 09/M05 A3003 RMK A01 T00901048  RH  038%=      5-min Rain = 0
KSM1 050940Z 30012KT 09/M05 A3003 RMK A01 T00901047  RH  038%=      5-min Rain = 0
KSM1 050945Z 30011KT 09/M05 A3003 RMK A01 T00881047  RH  038%=      5-min Rain = 0
KSM1 050950Z 30010KT 09/M05 A3004 RMK A01 T00861047  RH  039%=      5-min Rain = 0
KSM1 050955Z 30008G13KT 08/M05 A3004 RMK A01 T00811048  RH  040%=      5-min Rain = 0
KSM1 051000Z 31009KT 08/M05 A3004 RMK A01 T00801048  RH  040%=      5-min Rain = 0
KSM1 051005Z 31010KT 08/M05 A3004 RMK A01 T00811048  RH  040%=      5-min Rain = 0
KSM1 051010Z 31010G15KT 08/M05 A3004 RMK A01 T00811047  RH  040%=      5-min Rain = 0
KSM1 051015Z 31011KT 08/M05 A3004 RMK A01 T00801047  RH  040%=      5-min Rain = 0
KSM1 051020Z 31010KT 08/M05 A3005 RMK A01 T00791047  RH  041%=      5-min Rain = 0
KSM1 051025Z 31009G15KT 08/M05 A3005 RMK A01 T00791046  RH  041%=      5-min Rain = 0
KSM1 051030Z 30011G16KT 08/M05 A3005 RMK A01 T00801046  RH  041%=      5-min Rain = 0
KSM1 051035Z 31011G16KT 08/M05 A3005 RMK A01 T00801046  RH  041%=      5-min Rain = 0
KSM1 051040Z 31012KT 08/M05 A3005 RMK A01 T00781046  RH  041%=      5-min Rain = 0
KSM1 051045Z 31012G17KT 08/M05 A3005 RMK A01 T00771046  RH  041%=      5-min Rain = 0
KSM1 051050Z 31012G17KT 08/M05 A3005 RMK A01 T00751046  RH  042%=      5-min Rain = 0
KSM1 051055Z 31011KT 08/M05 A3005 RMK A01 T00751046  RH  042%=      5-min Rain = 0
KSM1 051100Z 30011KT 08/M05 A3005 RMK A01 T00751047  RH  042%=      5-min Rain = 0
KSM1 051105Z 31012G19KT 07/M05 A3005 RMK A01 T00731047  RH  042%=      5-min Rain = 0
KSM1 051110Z 31012G18KT 07/M05 A3006 RMK A01 T00701047  RH  043%=      5-min Rain = 0
KSM1 051115Z 31012G18KT 07/M05 A3006 RMK A01 T00691047  RH  044%=      5-min Rain = 0
KSM1 051120Z 31012KT 07/M05 A3006 RMK A01 T00691047  RH  044%=      5-min Rain = 0
KSM1 051125Z 32012G17KT 07/M05 A3006 RMK A01 T00691047  RH  044%=      5-min Rain = 0
KSM1 051130Z 32012KT 07/M05 A3006 RMK A01 T00681047  RH  044%=      5-min Rain = 0
KSM1 051135Z 32012KT 07/M05 A3006 RMK A01 T00681046  RH  044%=      5-min Rain = 0
KSM1 051140Z 32013KT 07/M05 A3006 RMK A01 T00681045  RH  044%=      5-min Rain = 0
KSM1 051145Z 32012KT 07/M04 A3007 RMK A01 T00691043  RH  045%=      5-min Rain = 0
KSM1 051150Z 32011KT 07/M04 A3007 RMK A01 T00671043  RH  046%=      5-min Rain = 0
KSM1 051155Z 32011KT 06/M04 A3007 RMK A01 T00641043  RH  046%=      5-min Rain = 0
KSM1 051200Z 31009KT 06/M04 A3007 RMK A01 T00621042  RH  047%=      5-min Rain = 0
KSM1 051205Z 31009KT 06/M04 A3007 RMK A01 T00601043  RH  048%=      5-min Rain = 0
KSM1 051210Z 31009KT 06/M04 A3008 RMK A01 T00591042  RH  048%=      5-min Rain = 0
KSM1 051215Z 31008KT 06/M04 A3008 RMK A01 T00581042  RH  049%=      5-min Rain = 0
KSM1 051220Z 31007KT 06/M04 A3008 RMK A01 T00561043  RH  049%=      5-min Rain = 0
KSM1 051225Z 31007KT 05/M04 A3008 RMK A01 T00541042  RH  050%=      5-min Rain = 0
KSM1 051230Z 30006KT 05/M04 A3008 RMK A01 T00521043  RH  051%=      5-min Rain = 0
KSM1 051235Z 30007KT 05/M04 A3008 RMK A01 T00521043  RH  051%=      5-min Rain = 0
KSM1 051240Z 31008KT 06/M04 A3008 RMK A01 T00551041  RH  050%=      5-min Rain = 0
KSM1 051245Z 30008KT 06/M04 A3009 RMK A01 T00591039  RH  050%=      5-min Rain = 0
KSM1 051250Z 30008KT 06/M04 A3009 RMK A01 T00591039  RH  050%=      5-min Rain = 0
KSM1 051255Z 30008KT 06/M04 A3009 RMK A01 T00581039  RH  050%=      5-min Rain = 0
KSM1 051300Z 30008KT 06/M04 A3009 RMK A01 T00571039  RH  050%=      5-min Rain = 0
KSM1 051305Z 30009KT 06/M04 A301 RMK A01 T00571039  RH  050%=      5-min Rain = 0
KSM1 051310Z 30010KT 06/M04 A301 RMK A01 T00581038  RH  050%=      5-min Rain = 0
KSM1 051315Z 30009KT 06/M04 A301 RMK A01 T00571038  RH  051%=      5-min Rain = 0
KSM1 051320Z 30008KT 05/M04 A3011 RMK A01 T00541038  RH  052%=      5-min Rain = 0
KSM1 051325Z 30009KT 05/M04 A3011 RMK A01 T00541036  RH  052%=      5-min Rain = 0
KSM1 051330Z 30009KT 06/M04 A3011 RMK A01 T00551036  RH  052%=      5-min Rain = 0
KSM1 051335Z 30009KT 06/M04 A3012 RMK A01 T00561035  RH  052%=      5-min Rain = 0
KSM1 051340Z 30008KT 06/M03 A3012 RMK A01 T00571033  RH  052%=      5-min Rain = 0
KSM1 051345Z 30009KT 06/M03 A3012 RMK A01 T00601031  RH  052%=      5-min Rain = 0
KSM1 051350Z 31009KT 07/M03 A3012 RMK A01 T00651028  RH  052%=      5-min Rain = 0
KSM1 051355Z 31008KT 07/M02 A3012 RMK A01 T00691023  RH  052%=      5-min Rain = 0
KSM1 051400Z 32009KT 07/M02 A3012 RMK A01 T00741018  RH  053%=      5-min Rain = 0
KSM1 051405Z 31010KT 08/M01 A3013 RMK A01 T00781014  RH  052%=      5-min Rain = 0
KSM1 051410Z 32010KT 08/M01 A3013 RMK A01 T00821011  RH  052%=      5-min Rain = 0
KSM1 051415Z 32011G16KT 09/M01 A3013 RMK A01 T00861006  RH  053%=      5-min Rain = 0
KSM1 051420Z 32014KT 09/M00 A3013 RMK A01 T00931003  RH  052%=      5-min Rain = 0
KSM1 051425Z 33013G21KT 10/M00 A3013 RMK A01 T00971001  RH  051%=      5-min Rain = 0
KSM1 051430Z 33016G21KT 10/00 A3014 RMK A01 T01000001  RH  051%=      5-min Rain = 0
KSM1 051435Z 33016G22KT 10/00 A3014 RMK A01 T01030003  RH  050%=      5-min Rain = 0
KSM1 051440Z 34021G29KT 11/01 A3014 RMK A01 T01060005  RH  050%=      5-min Rain = 0
KSM1 051445Z 33022G32KT 11/01 A3015 RMK A01 T01070006  RH  050%=      5-min Rain = 0
KSM1 051450Z 34021G27KT 11/01 A3015 RMK A01 T01080006  RH  050%=      5-min Rain = 0
KSM1 051455Z 33023G31KT 11/01 A3015 RMK A01 T01080006  RH  050%=      5-min Rain = 0
KSM1 051500Z 33021G29KT 11/01 A3015 RMK A01 T01080006  RH  050%=      5-min Rain = 0
KSM1 051505Z 33022G27KT 11/01 A3015 RMK A01 T01100007  RH  050%=      5-min Rain = 0
KSM1 051510Z 34024G32KT 11/01 A3015 RMK A01 T01100009  RH  050%=      5-min Rain = 0
KSM1 051515Z 34020G26KT 11/01 A3015 RMK A01 T01120012  RH  051%=      5-min Rain = 0
KSM1 051520Z 34025G34KT 11/02 A3016 RMK A01 T01140019  RH  053%=      5-min Rain = 0
KSM1 051525Z 34027G33KT 12/02 A3016 RMK A01 T01150022  RH  054%=      5-min Rain = 0
KSM1 051530Z 35027G35KT 11/03 A3016 RMK A01 T01140025  RH  055%=      5-min Rain = 0
KSM1 051535Z 35025G31KT 12/03 A3016 RMK A01 T01170027  RH  055%=      5-min Rain = 0
KSM1 051540Z 34026G36KT 12/03 A3016 RMK A01 T01170027  RH  055%=      5-min Rain = 0
KSM1 051545Z 34024G35KT 12/03 A3017 RMK A01 T01180027  RH  054%=      5-min Rain = 0
KSM1 051550Z 35029G39KT 12/03 A3017 RMK A01 T01210027  RH  054%=      5-min Rain = 0
KSM1 051555Z 35029G36KT 12/03 A3017 RMK A01 T01210026  RH  053%=      5-min Rain = 0
KSM1 051600Z 35027G39KT 12/03 A3017 RMK A01 T01220026  RH  053%=      5-min Rain = 0
KSM1 051605Z 35028G37KT 12/03 A3017 RMK A01 T01240025  RH  052%=      5-min Rain = 0
KSM1 051610Z 35030G38KT 12/03 A3017 RMK A01 T01240025  RH  052%=      5-min Rain = 0
KSM1 051615Z 35027G38KT 13/03 A3016 RMK A01 T01290026  RH  050%=      5-min Rain = 0
KSM1 051620Z 35024G35KT 13/03 A3016 RMK A01 T01340026  RH  049%=      5-min Rain = 0
KSM1 051625Z 35031G40KT 14/02 A3016 RMK A01 T01350024  RH  048%=      5-min Rain = 0
KSM1 051630Z 35030G38KT 13/02 A3017 RMK A01 T01330024  RH  048%=      5-min Rain = 0
KSM1 051635Z 36025G36KT 14/03 A3017 RMK A01 T01360026  RH  048%=      5-min Rain = 0
KSM1 051640Z 35028G35KT 14/03 A3017 RMK A01 T01370026  RH  048%=      5-min Rain = 0
KSM1 051645Z 36030G37KT 14/03 A3017 RMK A01 T01370027  RH  048%=      5-min Rain = 0
KSM1 051650Z 36032G39KT 14/03 A3017 RMK A01 T01360028  RH  049%=      5-min Rain = 0
KSM1 051655Z 36029G37KT 14/03 A3018 RMK A01 T01360028  RH  049%=      5-min Rain = 0
KSM1 051700Z 36030G41KT 14/03 A3018 RMK A01 T01390030  RH  049%=      5-min Rain = 0
KSM1 051705Z 01028G37KT 14/03 A3019 RMK A01 T01360031  RH  050%=      5-min Rain = 0
KSM1 051710Z 00029G36KT 14/03 A3019 RMK A01 T01350031  RH  050%=      5-min Rain = 0
KSM1 051715Z 00028G36KT 14/03 A3019 RMK A01 T01350032  RH  051%=      5-min Rain = 0
KSM1 051720Z 00027G35KT 14/03 A3019 RMK A01 T01380033  RH  050%=      5-min Rain = 0
KSM1 051725Z 00026G36KT 14/04 A302 RMK A01 T01390035  RH  050%=      5-min Rain = 0
KSM1 051730Z 36026G33KT 14/04 A302 RMK A01 T01360036  RH  052%=      5-min Rain = 0
KSM1 051735Z 00028G33KT 13/04 A302 RMK A01 T01340036  RH  052%=      5-min Rain = 0
KSM1 051740Z 00028G37KT 14/04 A302 RMK A01 T01350036  RH  052%=      5-min Rain = 0
KSM1 051745Z 00026G33KT 14/04 A3021 RMK A01 T01350037  RH  052%=      5-min Rain = 0
KSM1 051750Z 01024G31KT 13/04 A3021 RMK A01 T01310037  RH  054%=      5-min Rain = 0
KSM1 051755Z 01026G33KT 13/04 A3021 RMK A01 T01320039  RH  054%=      5-min Rain = 0
KSM1 051800Z 00025G32KT 13/04 A3021 RMK A01 T01310038  RH  054%=      5-min Rain = 0
KSM1 051805Z 36023G32KT 13/04 A3021 RMK A01 T01310038  RH  054%=      5-min Rain = 0
KSM1 051810Z 00026G32KT 14/04 A3021 RMK A01 T01350039  RH  053%=      5-min Rain = 0
KSM1 051815Z 00024G29KT 13/04 A3021 RMK A01 T01330039  RH  054%=      5-min Rain = 0
KSM1 051820Z 36024G31KT 13/04 A3021 RMK A01 T01330040  RH  054%=      5-min Rain = 0
KSM1 051825Z 00025G33KT 14/04 A3021 RMK A01 T01400042  RH  053%=      5-min Rain = 0
KSM1 051830Z 01024G31KT 14/04 A3021 RMK A01 T01440039  RH  050%=      5-min Rain = 0
KSM1 051835Z 36025G30KT 14/04 A3021 RMK A01 T01390037  RH  051%=      5-min Rain = 0
KSM1 051840Z 36022G30KT 14/04 A3021 RMK A01 T01410039  RH  051%=      5-min Rain = 0
KSM1 051845Z 00025G31KT 14/04 A3021 RMK A01 T01390038  RH  051%=      5-min Rain = 0
KSM1 051850Z 00023G30KT 14/04 A3021 RMK A01 T01380038  RH  052%=      5-min Rain = 0
KSM1 051855Z 36022G28KT 14/04 A3021 RMK A01 T01390040  RH  052%=      5-min Rain = 0
KSM1 051900Z 00021G30KT 15/04 A3021 RMK A01 T01460038  RH  049%=      5-min Rain = 0
KSM1 051905Z 01020G27KT 15/04 A3021 RMK A01 T01460035  RH  048%=      5-min Rain = 0
KSM1 051910Z 00022G30KT 15/04 A3021 RMK A01 T01500036  RH  047%=      5-min Rain = 0
KSM1 051915Z 35021G30KT 15/04 A302 RMK A01 T01540035  RH  046%=      5-min Rain = 0
KSM1 051920Z 36024G35KT 15/03 A302 RMK A01 T01500032  RH  046%=      5-min Rain = 0
KSM1 051925Z 36023G30KT 16/03 A302 RMK A01 T01560034  RH  045%=      5-min Rain = 0
KSM1 051930Z 36024G33KT 15/03 A302 RMK A01 T01540032  RH  045%=      5-min Rain = 0
KSM1 051935Z 00022G29KT 15/03 A3021 RMK A01 T01510032  RH  046%=      5-min Rain = 0
KSM1 051940Z 35023G31KT 15/03 A3021 RMK A01 T01520033  RH  046%=      5-min Rain = 0
KSM1 051945Z 36024G30KT 15/03 A3021 RMK A01 T01450032  RH  047%=      5-min Rain = 0
KSM1 051950Z 36020G30KT 15/03 A3021 RMK A01 T01490033  RH  046%=      5-min Rain = 0
KSM1 051955Z 01022G29KT 15/03 A3021 RMK A01 T01500032  RH  046%=      5-min Rain = 0
KSM1 052000Z 01024G32KT 15/03 A302 RMK A01 T01460029  RH  046%=      5-min Rain = 0
KSM1 052005Z 00024G29KT 15/03 A302 RMK A01 T01510031  RH  045%=      5-min Rain = 0
KSM1 052010Z 00025G35KT 16/03 A302 RMK A01 T01560031  RH  044%=      5-min Rain = 0
KSM1 052015Z 00022G32KT 16/03 A302 RMK A01 T01600031  RH  043%=      5-min Rain = 0
KSM1 052020Z 01025G32KT 16/03 A302 RMK A01 T01570032  RH  044%=      5-min Rain = 0
KSM1 052025Z 00025G31KT 15/03 A302 RMK A01 T01520029  RH  044%=      5-min Rain = 0
KSM1 052030Z 01021G27KT 15/03 A302 RMK A01 T01540030  RH  044%=      5-min Rain = 0
KSM1 052035Z 01021G27KT 15/03 A302 RMK A01 T01490028  RH  045%=      5-min Rain = 0
KSM1 052040Z 00022G28KT 15/03 A302 RMK A01 T01470027  RH  045%=      5-min Rain = 0
KSM1 052045Z 01024G29KT 15/03 A302 RMK A01 T01460027  RH  045%=      5-min Rain = 0
KSM1 052050Z 02022G28KT 15/03 A3021 RMK A01 T01470026  RH  045%=      5-min Rain = 0
KSM1 052055Z 02023KT 15/03 A3021 RMK A01 T01490025  RH  044%=      5-min Rain = 0
KSM1 052100Z 02022G29KT 15/02 A3021 RMK A01 T01480022  RH  043%=      5-min Rain = 0
KSM1 052105Z 01021G27KT 15/02 A3021 RMK A01 T01450023  RH  045%=      5-min Rain = 0
KSM1 052110Z 01023G30KT 14/02 A3021 RMK A01 T01420024  RH  046%=      5-min Rain = 0
KSM1 052115Z 02019G26KT 14/02 A3021 RMK A01 T01420023  RH  045%=      5-min Rain = 0
KSM1 052120Z 02020G27KT 15/02 A3021 RMK A01 T01460023  RH  044%=      5-min Rain = 0
KSM1 052125Z 01021G27KT 15/02 A3022 RMK A01 T01510022  RH  042%=      5-min Rain = 0
KSM1 052130Z 02021G28KT 15/02 A3022 RMK A01 T01460020  RH  043%=      5-min Rain = 0
KSM1 052135Z 02022G29KT 15/02 A3022 RMK A01 T01460022  RH  044%=      5-min Rain = 0
KSM1 052140Z 01022KT 15/02 A3022 RMK A01 T01450021  RH  044%=      5-min Rain = 0
KSM1 052145Z 02022G27KT 15/02 A3022 RMK A01 T01480023  RH  044%=      5-min Rain = 0
KSM1 052150Z 02022G28KT 15/02 A3023 RMK A01 T01450023  RH  044%=      5-min Rain = 0
KSM1 052155Z 02024G31KT 14/02 A3023 RMK A01 T01410021  RH  045%=      5-min Rain = 0
KSM1 052200Z 01022G30KT 14/02 A3023 RMK A01 T01400022  RH  046%=      5-min Rain = 0
KSM1 052205Z 02020G28KT 14/02 A3023 RMK A01 T01380022  RH  046%=      5-min Rain = 0
KSM1 052210Z 01020G25KT 14/03 A3024 RMK A01 T01440025  RH  045%=      5-min Rain = 0
KSM1 052215Z 01023G31KT 14/02 A3024 RMK A01 T01400022  RH  046%=      5-min Rain = 0
KSM1 052220Z 02021G27KT 14/02 A3024 RMK A01 T01380022  RH  046%=      5-min Rain = 0
KSM1 052225Z 02021G27KT 14/02 A3024 RMK A01 T01390023  RH  046%=      5-min Rain = 0
KSM1 052230Z 01022G27KT 14/02 A3024 RMK A01 T01350021  RH  047%=      5-min Rain = 0
KSM1 052235Z 02020G29KT 14/02 A3025 RMK A01 T01350021  RH  047%=      5-min Rain = 0
KSM1 052240Z 02019G24KT 13/02 A3025 RMK A01 T01330021  RH  047%=      5-min Rain = 0
KSM1 052245Z 02021G26KT 13/02 A3025 RMK A01 T01340022  RH  047%=      5-min Rain = 0
KSM1 052250Z 02019G25KT 13/02 A3025 RMK A01 T01310021  RH  048%=      5-min Rain = 0
KSM1 052255Z 02021G26KT 13/02 A3026 RMK A01 T01290019  RH  048%=      5-min Rain = 0
KSM1 052300Z 01021G26KT 13/02 A3026 RMK A01 T01280018  RH  048%=      5-min Rain = 0
KSM1 052305Z 02021G26KT 13/02 A3026 RMK A01 T01260018  RH  048%=      5-min Rain = 0
KSM1 052310Z 02019G26KT 13/02 A3026 RMK A01 T01260019  RH  049%=      5-min Rain = 0
KSM1 052315Z 02021G26KT 13/02 A3026 RMK A01 T01250021  RH  050%=      5-min Rain = 0
KSM1 052320Z 02020G25KT 12/02 A3026 RMK A01 T01240021  RH  050%=      5-min Rain = 0
KSM1 052325Z 02019G27KT 12/02 A3026 RMK A01 T01230022  RH  051%=      5-min Rain = 0
KSM1 052330Z 02020G26KT 12/02 A3027 RMK A01 T01220019  RH  050%=      5-min Rain = 0
KSM1 052335Z 02018G24KT 12/02 A3027 RMK A01 T01220018  RH  050%=      5-min Rain = 0
KSM1 052340Z 01020G26KT 12/02 A3027 RMK A01 T01210019  RH  050%=      5-min Rain = 0
KSM1 052345Z 01019G24KT 12/02 A3027 RMK A01 T01210021  RH  051%=      5-min Rain = 0
KSM1 052350Z 01018KT 12/02 A3027 RMK A01 T01210019  RH  051%=      5-min Rain = 0
KSM1 052355Z 02019G27KT 12/02 A3027 RMK A01 T01200018  RH  050%=      5-min Rain = 0
KSM1 060000Z 01021G28KT 12/02 A3027 RMK A01 T01200018  RH  050%=      5-min Rain = 0
KSM1 060005Z 01018KT 12/02 A3027 RMK A01 T01190017  RH  050%=      5-min Rain = 0
KSM1 060010Z 01014G19KT 12/02 A3028 RMK A01 T01160018  RH  052%=      5-min Rain = 0
KSM1 060015Z 01015G21KT 12/02 A3028 RMK A01 T01150017  RH  052%=      5-min Rain = 0
KSM1 060020Z 01015KT 11/02 A3028 RMK A01 T01140018  RH  052%=      5-min Rain = 0
KSM1 060025Z 01015KT 11/02 A3028 RMK A01 T01140018  RH  053%=      5-min Rain = 0
KSM1 060030Z 01016KT 11/02 A3028 RMK A01 T01120019  RH  053%=      5-min Rain = 0
KSM1 060035Z 01014KT 11/02 A3028 RMK A01 T01110019  RH  054%=      5-min Rain = 0
KSM1 060040Z 01013KT 11/02 A3028 RMK A01 T01090019  RH  055%=      5-min Rain = 0
KSM1 060045Z 01012KT 11/02 A3028 RMK A01 T01080019  RH  055%=      5-min Rain = 0
KSM1 060050Z 01011KT 11/02 A3028 RMK A01 T01060019  RH  056%=      5-min Rain = 0
KSM1 060055Z 01010KT 10/02 A3029 RMK A01 T01040018  RH  056%=      5-min Rain = 0
KSM1 060100Z 01010KT 10/02 A3029 RMK A01 T01020018  RH  057%=      5-min Rain = 0
KSM1 060105Z 01010KT 10/02 A3029 RMK A01 T01010018  RH  057%=      5-min Rain = 0
KSM1 060110Z 00009KT 10/02 A3029 RMK A01 T00980017  RH  058%=      5-min Rain = 0
KSM1 060115Z 01008KT 10/02 A3029 RMK A01 T00960017  RH  059%=      5-min Rain = 0
KSM1 060120Z 00008KT 10/02 A3029 RMK A01 T00950017  RH  059%=      5-min Rain = 0
KSM1 060125Z 01007KT 09/02 A3029 RMK A01 T00920016  RH  060%=      5-min Rain = 0
KSM1 060130Z 01007KT 09/02 A3029 RMK A01 T00890015  RH  061%=      5-min Rain = 0
KSM1 060135Z 01006KT 09/01 A3029 RMK A01 T00850014  RH  062%=      5-min Rain = 0
KSM1 060140Z 01006KT 08/01 A3029 RMK A01 T00810013  RH  063%=      5-min Rain = 0
KSM1 060145Z 00006KT 08/01 A3029 RMK A01 T00790013  RH  064%=      5-min Rain = 0
KSM1 060150Z 35006KT 08/01 A3029 RMK A01 T00770012  RH  064%=      5-min Rain = 0
KSM1 060155Z 35005KT 08/01 A303 RMK A01 T00770013  RH  065%=      5-min Rain = 0
KSM1 060200Z 35005KT 08/01 A303 RMK A01 T00770013  RH  065%=      5-min Rain = 0
KSM1 060205Z 34005KT 08/01 A303 RMK A01 T00750012  RH  065%=      5-min Rain = 0
KSM1 060210Z 34005KT 08/01 A303 RMK A01 T00750013  RH  065%=      5-min Rain = 0
KSM1 060215Z 33004KT 08/01 A303 RMK A01 T00760014  RH  066%=      5-min Rain = 0
KSM1 060220Z 32004KT 08/01 A3031 RMK A01 T00760013  RH  065%=      5-min Rain = 0
KSM1 060225Z 31004KT 07/01 A3031 RMK A01 T00740013  RH  066%=      5-min Rain = 0
KSM1 060230Z 32004KT 07/01 A3031 RMK A01 T00710013  RH  067%=      5-min Rain = 0
KSM1 060235Z 33005KT 07/01 A3031 RMK A01 T00700012  RH  068%=      5-min Rain = 0
KSM1 060240Z 33005KT 07/01 A3031 RMK A01 T00660010  RH  068%=      5-min Rain = 0
KSM1 060245Z 34006KT 06/01 A3031 RMK A01 T00630008  RH  069%=      5-min Rain = 0
KSM1 060250Z 34005KT 06/01 A3031 RMK A01 T00600007  RH  070%=      5-min Rain = 0
KSM1 060255Z 34005KT 06/01 A3032 RMK A01 T00610008  RH  070%=      5-min Rain = 0
KSM1 060300Z 34006KT 06/01 A3032 RMK A01 T00590006  RH  070%=      5-min Rain = 0
KSM1 060305Z 33005KT 06/01 A3032 RMK A01 T00560005  RH  071%=      5-min Rain = 0
KSM1 060310Z 33005KT 05/01 A3032 RMK A01 T00540005  RH  072%=      5-min Rain = 0
KSM1 060315Z 32005KT 05/01 A3032 RMK A01 T00540006  RH  072%=      5-min Rain = 0
KSM1 060320Z 33005KT 05/01 A3032 RMK A01 T00540005  RH  071%=      5-min Rain = 0
KSM1 060325Z 33006KT 05/00 A3032 RMK A01 T00530004  RH  071%=      5-min Rain = 0
KSM1 060330Z 33005KT 05/00 A3032 RMK A01 T00520004  RH  072%=      5-min Rain = 0
KSM1 060335Z 33005KT 05/01 A3032 RMK A01 T00530005  RH  072%=      5-min Rain = 0
KSM1 060340Z 33006KT 05/00 A3032 RMK A01 T00520004  RH  072%=      5-min Rain = 0
KSM1 060345Z 33006KT 05/00 A3032 RMK A01 T00490002  RH  073%=      5-min Rain = 0
KSM1 060350Z 33006KT 05/00 A3033 RMK A01 T00450001  RH  074%=      5-min Rain = 0
KSM1 060355Z 33006KT 05/00 A3033 RMK A01 T00450001  RH  074%=      5-min Rain = 0
KSM1 060400Z 34006KT 05/00 A3033 RMK A01 T00450002  RH  075%=      5-min Rain = 0
KSM1 060405Z 34005KT 05/00 A3033 RMK A01 T00460003  RH  074%=      5-min Rain = 0
KSM1 060410Z 33005KT 05/00 A3033 RMK A01 T00470004  RH  074%=      5-min Rain = 0
KSM1 060415Z 33005KT 05/00 A3033 RMK A01 T00470003  RH  074%=      5-min Rain = 0
KSM1 060420Z 34005KT 05/00 A3033 RMK A01 T00450002  RH  075%=      5-min Rain = 0
KSM1 060425Z 34005KT 04/00 A3033 RMK A01 T00440002  RH  075%=      5-min Rain = 0
KSM1 060430Z 35007KT 04/00 A3033 RMK A01 T00430001  RH  075%=      5-min Rain = 0
KSM1 060435Z 00008KT 04/M00 A3033 RMK A01 T00371003  RH  076%=      5-min Rain = 0
KSM1 060440Z 00007KT 04/00 A3033 RMK A01 T00380000  RH  077%=      5-min Rain = 0
KSM1 060445Z 36007KT 04/00 A3033 RMK A01 T00390000  RH  077%=      5-min Rain = 0
KSM1 060450Z 35007KT 04/00 A3033 RMK A01 T00420003  RH  076%=      5-min Rain = 0
KSM1 060455Z 35007KT 04/00 A3033 RMK A01 T00430002  RH  076%=      5-min Rain = 0
KSM1 060500Z 35007KT 04/00 A3033 RMK A01 T00420001  RH  076%=      5-min Rain = 0
KSM1 060505Z 35007KT 04/00 A3033 RMK A01 T00410001  RH  076%=      5-min Rain = 0
KSM1 060510Z 35007KT 04/00 A3033 RMK A01 T00420001  RH  076%=      5-min Rain = 0
KSM1 060515Z 36006KT 04/00 A3033 RMK A01 T00410001  RH  076%=      5-min Rain = 0
KSM1 060520Z 35006KT 04/00 A3033 RMK A01 T00420003  RH  077%=      5-min Rain = 0
KSM1 060525Z 34005KT 04/00 A3033 RMK A01 T00430002  RH  076%=      5-min Rain = 0
KSM1 060530Z 34004KT 04/M00 A3033 RMK A01 T00381004  RH  075%=      5-min Rain = 0
KSM1 060535Z 34004KT 04/M00 A3033 RMK A01 T00351003  RH  077%=      5-min Rain = 0
KSM1 060540Z 34005KT 04/M00 A3033 RMK A01 T00361002  RH  077%=      5-min Rain = 0
KSM1 060545Z 34005KT 03/M00 A3033 RMK A01 T00341004  RH  077%=      5-min Rain = 0
KSM1 060550Z 35005KT 03/M01 A3033 RMK A01 T00321005  RH  078%=      5-min Rain = 0
KSM1 060555Z 35006KT 03/M00 A3033 RMK A01 T00341002  RH  078%=      5-min Rain = 0

Page generated in 0.0086 seconds.